sensor_id;sensor_type;location;lat;lon;timestamp;temperature;humidity
18384;DHT22;9318;48.644;9.456;2023-04-25T00:02:06;8.60;99.90
18384;DHT22;9318;48.644;9.456;2023-04-25T00:04:34;8.60;99.90
18384;DHT22;9318;48.644;9.456;2023-04-25T00:07:00;8.70;99.90
18384;DHT22;9318;48.644;9.456;2023-04-25T00:09:29;8.70;99.90
18384;DHT22;9318;48.644;9.456;2023-04-25T00:11:56;8.70;99.90
18384;DHT22;9318;48.644;9.456;2023-04-25T00:14:23;8.70;99.90
18384;DHT22;9318;48.644;9.456;2023-04-25T00:16:50;8.70;99.90
18384;DHT22;9318;48.644;9.456;2023-04-25T00:19:17;8.70;99.90
18384;DHT22;9318;48.644;9.456;2023-04-25T00:21:44;8.70;99.90
18384;DHT22;9318;48.644;9.456;2023-04-25T00:24:11;8.70;99.90
18384;DHT22;9318;48.644;9.456;2023-04-25T00:26:40;8.70;99.90
18384;DHT22;9318;48.644;9.456;2023-04-25T00:29:06;8.70;99.90
18384;DHT22;9318;48.644;9.456;2023-04-25T00:31:33;8.70;99.90
18384;DHT22;9318;48.644;9.456;2023-04-25T00:34:00;8.70;99.90
18384;DHT22;9318;48.644;9.456;2023-04-25T00:36:27;8.70;99.90
18384;DHT22;9318;48.644;9.456;2023-04-25T00:38:54;8.70;99.90
18384;DHT22;9318;48.644;9.456;2023-04-25T00:41:21;8.70;99.90
18384;DHT22;9318;48.644;9.456;2023-04-25T00:43:49;8.70;99.90
18384;DHT22;9318;48.644;9.456;2023-04-25T00:46:17;8.60;99.90
18384;DHT22;9318;48.644;9.456;2023-04-25T00:48:44;8.60;99.90
18384;DHT22;9318;48.644;9.456;2023-04-25T00:51:15;8.70;99.90
18384;DHT22;9318;48.644;9.456;2023-04-25T00:53:42;8.60;99.90
18384;DHT22;9318;48.644;9.456;2023-04-25T00:56:09;8.60;99.90
18384;DHT22;9318;48.644;9.456;2023-04-25T00:58:36;8.60;99.90
18384;DHT22;9318;48.644;9.456;2023-04-25T01:01:06;8.60;99.90
18384;DHT22;9318;48.644;9.456;2023-04-25T01:03:34;8.50;99.90
18384;DHT22;9318;48.644;9.456;2023-04-25T01:06:06;8.50;99.90
18384;DHT22;9318;48.644;9.456;2023-04-25T01:08:34;8.50;99.90
18384;DHT22;9318;48.644;9.456;2023-04-25T01:11:00;8.50;99.90
18384;DHT22;9318;48.644;9.456;2023-04-25T01:13:27;8.50;99.90
18384;DHT22;9318;48.644;9.456;2023-04-25T01:15:54;8.50;99.90
18384;DHT22;9318;48.644;9.456;2023-04-25T01:18:23;8.50;99.90
18384;DHT22;9318;48.644;9.456;2023-04-25T01:20:51;8.40;99.90
18384;DHT22;9318;48.644;9.456;2023-04-25T01:23:19;8.50;99.90
18384;DHT22;9318;48.644;9.456;2023-04-25T01:25:47;8.40;99.90
18384;DHT22;9318;48.644;9.456;2023-04-25T01:28:14;8.40;99.90
18384;DHT22;9318;48.644;9.456;2023-04-25T01:30:41;8.40;99.90
18384;DHT22;9318;48.644;9.456;2023-04-25T01:33:08;8.40;99.90
18384;DHT22;9318;48.644;9.456;2023-04-25T01:35:35;8.40;99.90
18384;DHT22;9318;48.644;9.456;2023-04-25T01:38:02;8.30;99.90
18384;DHT22;9318;48.644;9.456;2023-04-25T01:40:30;8.30;99.90
18384;DHT22;9318;48.644;9.456;2023-04-25T01:42:58;8.30;99.90
18384;DHT22;9318;48.644;9.456;2023-04-25T01:45:24;8.30;99.90
18384;DHT22;9318;48.644;9.456;2023-04-25T01:47:51;8.30;99.90
18384;DHT22;9318;48.644;9.456;2023-04-25T01:50:19;8.30;99.90
18384;DHT22;9318;48.644;9.456;2023-04-25T01:52:46;8.30;99.90
18384;DHT22;9318;48.644;9.456;2023-04-25T01:55:12;8.30;99.90
18384;DHT22;9318;48.644;9.456;2023-04-25T01:57:40;8.30;99.90
18384;DHT22;9318;48.644;9.456;2023-04-25T02:00:08;8.30;99.90
18384;DHT22;9318;48.644;9.456;2023-04-25T02:02:35;8.30;99.90
18384;DHT22;9318;48.644;9.456;2023-04-25T02:05:02;8.30;99.90
18384;DHT22;9318;48.644;9.456;2023-04-25T02:07:29;8.30;99.90
18384;DHT22;9318;48.644;9.456;2023-04-25T02:09:56;8.20;99.90
18384;DHT22;9318;48.644;9.456;2023-04-25T02:12:22;8.20;99.90
18384;DHT22;9318;48.644;9.456;2023-04-25T02:14:53;8.20;99.90
18384;DHT22;9318;48.644;9.456;2023-04-25T02:17:19;8.20;99.90
18384;DHT22;9318;48.644;9.456;2023-04-25T02:19:46;8.10;99.90
18384;DHT22;9318;48.644;9.456;2023-04-25T02:22:13;8.10;99.90
18384;DHT22;9318;48.644;9.456;2023-04-25T02:24:40;8.10;99.90
18384;DHT22;9318;48.644;9.456;2023-04-25T02:27:07;8.10;99.90
18384;DHT22;9318;48.644;9.456;2023-04-25T02:29:35;8.10;99.90
18384;DHT22;9318;48.644;9.456;2023-04-25T02:32:03;8.10;99.90
18384;DHT22;9318;48.644;9.456;2023-04-25T02:34:30;8.10;99.90
18384;DHT22;9318;48.644;9.456;2023-04-25T02:36:57;8.10;99.90
18384;DHT22;9318;48.644;9.456;2023-04-25T02:39:24;8.10;99.90
18384;DHT22;9318;48.644;9.456;2023-04-25T02:41:52;8.10;99.90
18384;DHT22;9318;48.644;9.456;2023-04-25T02:44:19;8.10;99.90
18384;DHT22;9318;48.644;9.456;2023-04-25T02:46:46;8.10;99.90
18384;DHT22;9318;48.644;9.456;2023-04-25T02:49:14;8.10;99.90
18384;DHT22;9318;48.644;9.456;2023-04-25T02:51:41;8.10;99.90
18384;DHT22;9318;48.644;9.456;2023-04-25T02:54:07;8.10;99.90
18384;DHT22;9318;48.644;9.456;2023-04-25T02:56:34;8.00;99.90
18384;DHT22;9318;48.644;9.456;2023-04-25T02:59:01;8.00;99.90
18384;DHT22;9318;48.644;9.456;2023-04-25T03:01:27;8.00;99.90
18384;DHT22;9318;48.644;9.456;2023-04-25T03:03:54;7.90;99.90
18384;DHT22;9318;48.644;9.456;2023-04-25T03:06:22;7.90;99.90
18384;DHT22;9318;48.644;9.456;2023-04-25T03:08:49;7.90;99.90
18384;DHT22;9318;48.644;9.456;2023-04-25T03:11:16;7.90;99.90
18384;DHT22;9318;48.644;9.456;2023-04-25T03:13:42;7.90;99.90
18384;DHT22;9318;48.644;9.456;2023-04-25T03:16:09;7.90;99.90
18384;DHT22;9318;48.644;9.456;2023-04-25T03:18:36;7.90;99.90
18384;DHT22;9318;48.644;9.456;2023-04-25T03:21:03;8.00;99.90
18384;DHT22;9318;48.644;9.456;2023-04-25T03:23:31;7.90;99.90
18384;DHT22;9318;48.644;9.456;2023-04-25T03:25:57;7.90;99.90
18384;DHT22;9318;48.644;9.456;2023-04-25T03:28:24;7.90;99.90
18384;DHT22;9318;48.644;9.456;2023-04-25T03:30:51;7.90;99.90
18384;DHT22;9318;48.644;9.456;2023-04-25T03:33:18;7.90;99.90
18384;DHT22;9318;48.644;9.456;2023-04-25T03:35:45;7.90;99.90
18384;DHT22;9318;48.644;9.456;2023-04-25T03:38:11;7.90;99.90
18384;DHT22;9318;48.644;9.456;2023-04-25T03:40:39;7.90;99.90
18384;DHT22;9318;48.644;9.456;2023-04-25T03:43:06;8.00;99.90
18384;DHT22;9318;48.644;9.456;2023-04-25T03:45:33;7.90;99.90
18384;DHT22;9318;48.644;9.456;2023-04-25T03:48:00;8.00;99.90
18384;DHT22;9318;48.644;9.456;2023-04-25T03:50:26;8.00;99.90
18384;DHT22;9318;48.644;9.456;2023-04-25T03:52:53;7.90;99.90
18384;DHT22;9318;48.644;9.456;2023-04-25T03:55:20;7.90;99.90
18384;DHT22;9318;48.644;9.456;2023-04-25T03:57:48;7.90;99.90
18384;DHT22;9318;48.644;9.456;2023-04-25T04:00:15;7.90;99.90
18384;DHT22;9318;48.644;9.456;2023-04-25T04:02:42;7.90;99.90
18384;DHT22;9318;48.644;9.456;2023-04-25T04:05:09;7.90;99.90
18384;DHT22;9318;48.644;9.456;2023-04-25T04:07:35;7.90;99.90
18384;DHT22;9318;48.644;9.456;2023-04-25T04:10:06;7.90;99.90
18384;DHT22;9318;48.644;9.456;2023-04-25T04:12:33;7.90;99.90
18384;DHT22;9318;48.644;9.456;2023-04-25T04:15:01;7.90;99.90
18384;DHT22;9318;48.644;9.456;2023-04-25T04:17:29;8.00;99.90
18384;DHT22;9318;48.644;9.456;2023-04-25T04:19:56;8.00;99.90
18384;DHT22;9318;48.644;9.456;2023-04-25T04:22:23;8.00;99.90
18384;DHT22;9318;48.644;9.456;2023-04-25T04:24:50;8.00;99.90
18384;DHT22;9318;48.644;9.456;2023-04-25T04:27:17;8.00;99.90
18384;DHT22;9318;48.644;9.456;2023-04-25T04:29:44;8.00;99.90
18384;DHT22;9318;48.644;9.456;2023-04-25T04:32:13;8.10;99.90
18384;DHT22;9318;48.644;9.456;2023-04-25T04:34:40;8.10;99.90
18384;DHT22;9318;48.644;9.456;2023-04-25T04:37:07;8.10;99.90
18384;DHT22;9318;48.644;9.456;2023-04-25T04:39:35;8.10;99.90
18384;DHT22;9318;48.644;9.456;2023-04-25T04:42:02;8.20;99.90
18384;DHT22;9318;48.644;9.456;2023-04-25T04:44:30;8.20;99.90
18384;DHT22;9318;48.644;9.456;2023-04-25T04:46:58;8.30;99.90
18384;DHT22;9318;48.644;9.456;2023-04-25T04:49:26;8.30;99.90
18384;DHT22;9318;48.644;9.456;2023-04-25T04:51:53;8.30;99.90
18384;DHT22;9318;48.644;9.456;2023-04-25T04:54:20;8.30;99.90
18384;DHT22;9318;48.644;9.456;2023-04-25T04:56:47;8.30;99.90
18384;DHT22;9318;48.644;9.456;2023-04-25T04:59:14;8.30;99.90
18384;DHT22;9318;48.644;9.456;2023-04-25T05:01:40;8.30;99.90
18384;DHT22;9318;48.644;9.456;2023-04-25T05:04:07;8.40;99.90
18384;DHT22;9318;48.644;9.456;2023-04-25T05:06:35;8.50;99.90
18384;DHT22;9318;48.644;9.456;2023-04-25T05:09:02;8.50;99.90
18384;DHT22;9318;48.644;9.456;2023-04-25T05:11:29;8.50;99.90
18384;DHT22;9318;48.644;9.456;2023-04-25T05:13:56;8.50;99.90
18384;DHT22;9318;48.644;9.456;2023-04-25T05:16:22;8.60;99.90
18384;DHT22;9318;48.644;9.456;2023-04-25T05:18:49;8.60;99.90
18384;DHT22;9318;48.644;9.456;2023-04-25T05:21:16;8.60;99.90
18384;DHT22;9318;48.644;9.456;2023-04-25T05:23:44;8.70;99.90
18384;DHT22;9318;48.644;9.456;2023-04-25T05:26:11;8.70;99.90
18384;DHT22;9318;48.644;9.456;2023-04-25T05:28:39;8.70;99.90
18384;DHT22;9318;48.644;9.456;2023-04-25T05:31:06;8.80;99.90
18384;DHT22;9318;48.644;9.456;2023-04-25T05:33:33;9.00;99.90
18384;DHT22;9318;48.644;9.456;2023-04-25T05:36:00;9.00;99.90
18384;DHT22;9318;48.644;9.456;2023-04-25T05:38:27;9.10;99.90
18384;DHT22;9318;48.644;9.456;2023-04-25T05:40:55;9.20;99.90
18384;DHT22;9318;48.644;9.456;2023-04-25T05:43:21;9.30;99.90
18384;DHT22;9318;48.644;9.456;2023-04-25T05:45:48;9.40;99.90
18384;DHT22;9318;48.644;9.456;2023-04-25T05:48:15;9.50;99.90
18384;DHT22;9318;48.644;9.456;2023-04-25T05:50:42;9.50;99.90
18384;DHT22;9318;48.644;9.456;2023-04-25T05:53:09;9.60;99.90
18384;DHT22;9318;48.644;9.456;2023-04-25T05:55:36;9.70;99.90
18384;DHT22;9318;48.644;9.456;2023-04-25T05:58:05;9.70;99.90
18384;DHT22;9318;48.644;9.456;2023-04-25T06:00:32;9.70;99.90
18384;DHT22;9318;48.644;9.456;2023-04-25T06:02:59;9.60;99.90
18384;DHT22;9318;48.644;9.456;2023-04-25T06:05:26;9.50;99.90
18384;DHT22;9318;48.644;9.456;2023-04-25T06:07:53;9.60;99.90
18384;DHT22;9318;48.644;9.456;2023-04-25T06:10:20;9.60;99.90
18384;DHT22;9318;48.644;9.456;2023-04-25T06:12:46;9.60;99.90
18384;DHT22;9318;48.644;9.456;2023-04-25T06:15:14;9.70;99.90
18384;DHT22;9318;48.644;9.456;2023-04-25T06:17:42;9.70;99.90
18384;DHT22;9318;48.644;9.456;2023-04-25T06:20:09;9.70;99.90
18384;DHT22;9318;48.644;9.456;2023-04-25T06:22:36;9.70;99.90
18384;DHT22;9318;48.644;9.456;2023-04-25T06:25:03;9.50;99.90
18384;DHT22;9318;48.644;9.456;2023-04-25T06:27:30;9.40;99.90
18384;DHT22;9318;48.644;9.456;2023-04-25T06:29:57;9.40;99.90
18384;DHT22;9318;48.644;9.456;2023-04-25T06:32:25;9.40;99.90
18384;DHT22;9318;48.644;9.456;2023-04-25T06:34:53;9.40;99.90
18384;DHT22;9318;48.644;9.456;2023-04-25T06:37:19;9.50;99.90
18384;DHT22;9318;48.644;9.456;2023-04-25T06:39:46;9.60;99.90
18384;DHT22;9318;48.644;9.456;2023-04-25T06:42:13;9.70;99.90
18384;DHT22;9318;48.644;9.456;2023-04-25T06:44:40;9.90;99.90
18384;DHT22;9318;48.644;9.456;2023-04-25T06:47:06;10.20;99.90
18384;DHT22;9318;48.644;9.456;2023-04-25T06:49:35;11.20;99.90
18384;DHT22;9318;48.644;9.456;2023-04-25T06:52:02;13.00;99.90
18384;DHT22;9318;48.644;9.456;2023-04-25T06:54:29;15.00;99.90
18384;DHT22;9318;48.644;9.456;2023-04-25T06:56:56;16.10;99.90
18384;DHT22;9318;48.644;9.456;2023-04-25T06:59:23;16.70;99.90
18384;DHT22;9318;48.644;9.456;2023-04-25T07:01:49;16.90;99.90
18384;DHT22;9318;48.644;9.456;2023-04-25T07:04:16;17.30;99.90
18384;DHT22;9318;48.644;9.456;2023-04-25T07:06:44;17.70;99.90
18384;DHT22;9318;48.644;9.456;2023-04-25T07:09:13;17.70;99.90
18384;DHT22;9318;48.644;9.456;2023-04-25T07:11:39;17.00;99.90
18384;DHT22;9318;48.644;9.456;2023-04-25T07:14:06;16.20;99.90
18384;DHT22;9318;48.644;9.456;2023-04-25T07:16:33;15.10;99.90
18384;DHT22;9318;48.644;9.456;2023-04-25T07:19:00;14.60;99.90
18384;DHT22;9318;48.644;9.456;2023-04-25T07:21:27;13.80;99.90
18384;DHT22;9318;48.644;9.456;2023-04-25T07:23:55;13.20;99.90
18384;DHT22;9318;48.644;9.456;2023-04-25T07:26:21;12.60;99.90
18384;DHT22;9318;48.644;9.456;2023-04-25T07:28:48;12.20;99.90
18384;DHT22;9318;48.644;9.456;2023-04-25T07:31:16;11.80;99.90
18384;DHT22;9318;48.644;9.456;2023-04-25T07:33:43;11.20;99.90
18384;DHT22;9318;48.644;9.456;2023-04-25T07:36:11;10.90;99.90
18384;DHT22;9318;48.644;9.456;2023-04-25T07:38:37;10.70;99.90
18384;DHT22;9318;48.644;9.456;2023-04-25T07:41:06;10.50;99.90
18384;DHT22;9318;48.644;9.456;2023-04-25T07:43:33;10.50;99.90
18384;DHT22;9318;48.644;9.456;2023-04-25T07:45:59;10.30;99.90
18384;DHT22;9318;48.644;9.456;2023-04-25T07:48:26;10.20;99.90
18384;DHT22;9318;48.644;9.456;2023-04-25T07:50:53;10.20;99.90
18384;DHT22;9318;48.644;9.456;2023-04-25T07:53:20;10.10;99.90
18384;DHT22;9318;48.644;9.456;2023-04-25T07:55:46;10.00;99.90
18384;DHT22;9318;48.644;9.456;2023-04-25T07:58:14;9.90;99.90
18384;DHT22;9318;48.644;9.456;2023-04-25T08:00:46;9.90;99.90
18384;DHT22;9318;48.644;9.456;2023-04-25T08:03:13;9.90;99.90
18384;DHT22;9318;48.644;9.456;2023-04-25T08:05:40;9.80;99.90
18384;DHT22;9318;48.644;9.456;2023-04-25T08:08:06;9.80;99.90
18384;DHT22;9318;48.644;9.456;2023-04-25T08:10:33;9.80;99.90
18384;DHT22;9318;48.644;9.456;2023-04-25T08:13:00;9.70;99.90
18384;DHT22;9318;48.644;9.456;2023-04-25T08:15:28;9.70;99.90
18384;DHT22;9318;48.644;9.456;2023-04-25T08:17:55;9.70;99.90
18384;DHT22;9318;48.644;9.456;2023-04-25T08:20:21;9.70;99.90
18384;DHT22;9318;48.644;9.456;2023-04-25T08:22:48;9.70;99.90
18384;DHT22;9318;48.644;9.456;2023-04-25T08:25:15;9.70;99.90
18384;DHT22;9318;48.644;9.456;2023-04-25T08:27:42;9.70;99.90
18384;DHT22;9318;48.644;9.456;2023-04-25T08:30:09;9.80;99.90
18384;DHT22;9318;48.644;9.456;2023-04-25T08:32:38;9.70;99.90
18384;DHT22;9318;48.644;9.456;2023-04-25T08:35:05;9.70;99.90
18384;DHT22;9318;48.644;9.456;2023-04-25T08:37:32;9.80;99.90
18384;DHT22;9318;48.644;9.456;2023-04-25T08:39:59;9.80;99.90
18384;DHT22;9318;48.644;9.456;2023-04-25T08:42:27;9.80;99.90
18384;DHT22;9318;48.644;9.456;2023-04-25T08:44:54;9.90;99.90
18384;DHT22;9318;48.644;9.456;2023-04-25T08:47:22;10.00;99.90
18384;DHT22;9318;48.644;9.456;2023-04-25T08:49:52;10.10;99.90
18384;DHT22;9318;48.644;9.456;2023-04-25T08:52:22;10.10;99.90
18384;DHT22;9318;48.644;9.456;2023-04-25T08:54:49;10.10;99.90
18384;DHT22;9318;48.644;9.456;2023-04-25T08:57:18;10.00;99.90
18384;DHT22;9318;48.644;9.456;2023-04-25T08:59:46;10.00;99.90
18384;DHT22;9318;48.644;9.456;2023-04-25T09:02:14;9.70;99.90
18384;DHT22;9318;48.644;9.456;2023-04-25T09:04:43;9.40;99.90
18384;DHT22;9318;48.644;9.456;2023-04-25T09:07:12;9.40;99.90
18384;DHT22;9318;48.644;9.456;2023-04-25T09:09:41;9.30;99.90
18384;DHT22;9318;48.644;9.456;2023-04-25T09:12:08;9.30;99.90
18384;DHT22;9318;48.644;9.456;2023-04-25T09:14:35;9.40;99.90
18384;DHT22;9318;48.644;9.456;2023-04-25T09:17:02;9.40;99.90
18384;DHT22;9318;48.644;9.456;2023-04-25T09:19:31;9.50;99.90
18384;DHT22;9318;48.644;9.456;2023-04-25T09:22:00;9.60;99.90
18384;DHT22;9318;48.644;9.456;2023-04-25T09:24:33;9.50;99.90
18384;DHT22;9318;48.644;9.456;2023-04-25T09:27:03;9.50;99.90
18384;DHT22;9318;48.644;9.456;2023-04-25T09:29:31;9.50;99.90
18384;DHT22;9318;48.644;9.456;2023-04-25T09:32:18;9.50;99.90
18384;DHT22;9318;48.644;9.456;2023-04-25T09:34:47;9.50;99.90
18384;DHT22;9318;48.644;9.456;2023-04-25T09:37:17;9.40;99.90
18384;DHT22;9318;48.644;9.456;2023-04-25T09:39:47;9.30;99.90
18384;DHT22;9318;48.644;9.456;2023-04-25T09:42:15;9.30;99.90
18384;DHT22;9318;48.644;9.456;2023-04-25T09:44:43;9.40;99.90
18384;DHT22;9318;48.644;9.456;2023-04-25T09:47:11;9.40;99.90
18384;DHT22;9318;48.644;9.456;2023-04-25T09:49:40;9.40;99.90
18384;DHT22;9318;48.644;9.456;2023-04-25T09:52:08;9.20;99.90
18384;DHT22;9318;48.644;9.456;2023-04-25T09:54:35;9.10;99.90
18384;DHT22;9318;48.644;9.456;2023-04-25T09:57:13;9.00;99.90
18384;DHT22;9318;48.644;9.456;2023-04-25T09:59:44;8.80;99.90
18384;DHT22;9318;48.644;9.456;2023-04-25T10:02:13;8.70;99.90
18384;DHT22;9318;48.644;9.456;2023-04-25T10:04:40;8.60;99.90
18384;DHT22;9318;48.644;9.456;2023-04-25T10:07:08;8.70;99.90
18384;DHT22;9318;48.644;9.456;2023-04-25T10:09:37;8.70;99.90
18384;DHT22;9318;48.644;9.456;2023-04-25T10:12:07;8.70;99.90
18384;DHT22;9318;48.644;9.456;2023-04-25T10:14:34;8.70;99.90
18384;DHT22;9318;48.644;9.456;2023-04-25T10:17:01;8.70;99.90
18384;DHT22;9318;48.644;9.456;2023-04-25T10:19:28;8.60;99.90
18384;DHT22;9318;48.644;9.456;2023-04-25T10:22:07;8.60;99.90
18384;DHT22;9318;48.644;9.456;2023-04-25T10:24:35;8.60;99.90
18384;DHT22;9318;48.644;9.456;2023-04-25T10:27:02;8.50;99.90
18384;DHT22;9318;48.644;9.456;2023-04-25T10:29:32;8.50;99.90
18384;DHT22;9318;48.644;9.456;2023-04-25T10:31:58;8.50;99.90
18384;DHT22;9318;48.644;9.456;2023-04-25T10:34:38;8.50;99.90
18384;DHT22;9318;48.644;9.456;2023-04-25T10:37:05;8.50;99.90
18384;DHT22;9318;48.644;9.456;2023-04-25T10:39:34;8.50;99.90
18384;DHT22;9318;48.644;9.456;2023-04-25T10:42:02;8.50;99.90
18384;DHT22;9318;48.644;9.456;2023-04-25T10:44:30;8.50;99.90
18384;DHT22;9318;48.644;9.456;2023-04-25T10:46:59;8.50;99.90
18384;DHT22;9318;48.644;9.456;2023-04-25T10:49:30;8.50;99.90
18384;DHT22;9318;48.644;9.456;2023-04-25T10:52:14;8.50;99.90
18384;DHT22;9318;48.644;9.456;2023-04-25T10:54:42;8.50;99.90
18384;DHT22;9318;48.644;9.456;2023-04-25T10:57:37;8.50;99.90
18384;DHT22;9318;48.644;9.456;2023-04-25T11:00:12;8.40;99.90
18384;DHT22;9318;48.644;9.456;2023-04-25T11:02:47;8.20;99.90
18384;DHT22;9318;48.644;9.456;2023-04-25T11:05:22;8.10;99.90
18384;DHT22;9318;48.644;9.456;2023-04-25T11:07:51;8.00;99.90
18384;DHT22;9318;48.644;9.456;2023-04-25T11:10:19;7.90;99.90
18384;DHT22;9318;48.644;9.456;2023-04-25T11:12:50;7.70;99.90
18384;DHT22;9318;48.644;9.456;2023-04-25T11:15:17;7.50;99.90
18384;DHT22;9318;48.644;9.456;2023-04-25T11:17:45;7.30;99.90
18384;DHT22;9318;48.644;9.456;2023-04-25T11:20:12;7.30;99.90
18384;DHT22;9318;48.644;9.456;2023-04-25T11:22:41;7.20;99.90
18384;DHT22;9318;48.644;9.456;2023-04-25T11:25:12;7.30;99.90
18384;DHT22;9318;48.644;9.456;2023-04-25T11:27:50;7.30;99.90
18384;DHT22;9318;48.644;9.456;2023-04-25T11:30:18;7.40;99.90
18384;DHT22;9318;48.644;9.456;2023-04-25T11:32:46;7.50;99.90
18384;DHT22;9318;48.644;9.456;2023-04-25T11:35:13;7.50;99.90
18384;DHT22;9318;48.644;9.456;2023-04-25T11:37:41;7.60;99.90
18384;DHT22;9318;48.644;9.456;2023-04-25T11:40:08;7.60;99.90
18384;DHT22;9318;48.644;9.456;2023-04-25T11:42:37;7.70;99.90
18384;DHT22;9318;48.644;9.456;2023-04-25T11:45:05;7.80;99.90
18384;DHT22;9318;48.644;9.456;2023-04-25T11:47:33;7.90;99.90
18384;DHT22;9318;48.644;9.456;2023-04-25T11:50:03;8.00;99.90
18384;DHT22;9318;48.644;9.456;2023-04-25T11:52:38;8.00;99.90
18384;DHT22;9318;48.644;9.456;2023-04-25T11:55:07;8.10;99.90
18384;DHT22;9318;48.644;9.456;2023-04-25T11:57:34;8.20;99.90
18384;DHT22;9318;48.644;9.456;2023-04-25T12:00:12;8.40;99.90
18384;DHT22;9318;48.644;9.456;2023-04-25T12:02:42;8.70;99.90
18384;DHT22;9318;48.644;9.456;2023-04-25T12:05:12;8.90;99.90
18384;DHT22;9318;48.644;9.456;2023-04-25T12:07:39;9.10;99.90
18384;DHT22;9318;48.644;9.456;2023-04-25T12:10:08;9.40;99.90
18384;DHT22;9318;48.644;9.456;2023-04-25T12:12:35;9.60;99.90
18384;DHT22;9318;48.644;9.456;2023-04-25T12:15:13;9.70;99.90
18384;DHT22;9318;48.644;9.456;2023-04-25T12:17:41;9.90;99.90
18384;DHT22;9318;48.644;9.456;2023-04-25T12:20:12;9.90;99.90
18384;DHT22;9318;48.644;9.456;2023-04-25T12:22:41;9.90;99.90
18384;DHT22;9318;48.644;9.456;2023-04-25T12:25:10;9.90;99.90
18384;DHT22;9318;48.644;9.456;2023-04-25T12:27:37;9.90;99.90
18384;DHT22;9318;48.644;9.456;2023-04-25T12:30:06;10.00;99.90
18384;DHT22;9318;48.644;9.456;2023-04-25T12:32:33;10.00;99.90
18384;DHT22;9318;48.644;9.456;2023-04-25T12:35:01;10.00;99.90
18384;DHT22;9318;48.644;9.456;2023-04-25T12:37:30;10.10;99.90
18384;DHT22;9318;48.644;9.456;2023-04-25T12:39:56;10.00;99.90
18384;DHT22;9318;48.644;9.456;2023-04-25T12:42:23;9.90;99.90
18384;DHT22;9318;48.644;9.456;2023-04-25T12:44:50;9.60;99.90
18384;DHT22;9318;48.644;9.456;2023-04-25T12:47:17;9.20;99.90
18384;DHT22;9318;48.644;9.456;2023-04-25T12:49:44;9.00;99.90
18384;DHT22;9318;48.644;9.456;2023-04-25T12:52:10;9.00;99.90
18384;DHT22;9318;48.644;9.456;2023-04-25T12:54:39;9.00;99.90
18384;DHT22;9318;48.644;9.456;2023-04-25T12:57:05;9.10;99.90
18384;DHT22;9318;48.644;9.456;2023-04-25T12:59:32;9.30;99.90
18384;DHT22;9318;48.644;9.456;2023-04-25T13:01:59;9.50;99.90
18384;DHT22;9318;48.644;9.456;2023-04-25T13:04:25;9.60;99.90
18384;DHT22;9318;48.644;9.456;2023-04-25T13:06:52;9.90;99.90
18384;DHT22;9318;48.644;9.456;2023-04-25T13:09:19;10.00;99.90
18384;DHT22;9318;48.644;9.456;2023-04-25T13:11:47;10.20;99.90
18384;DHT22;9318;48.644;9.456;2023-04-25T13:14:14;10.30;99.90
18384;DHT22;9318;48.644;9.456;2023-04-25T13:16:41;10.30;99.90
18384;DHT22;9318;48.644;9.456;2023-04-25T13:19:08;10.50;99.90
18384;DHT22;9318;48.644;9.456;2023-04-25T13:21:36;10.90;99.90
18384;DHT22;9318;48.644;9.456;2023-04-25T13:24:04;11.40;99.90
18384;DHT22;9318;48.644;9.456;2023-04-25T13:26:31;11.80;99.90
18384;DHT22;9318;48.644;9.456;2023-04-25T13:28:59;12.10;99.90
18384;DHT22;9318;48.644;9.456;2023-04-25T13:31:28;12.10;99.90
18384;DHT22;9318;48.644;9.456;2023-04-25T13:33:55;11.90;99.90
18384;DHT22;9318;48.644;9.456;2023-04-25T13:36:22;11.60;99.90
18384;DHT22;9318;48.644;9.456;2023-04-25T13:38:48;11.40;99.90
18384;DHT22;9318;48.644;9.456;2023-04-25T13:41:15;11.20;99.90
18384;DHT22;9318;48.644;9.456;2023-04-25T13:43:44;11.00;99.90
18384;DHT22;9318;48.644;9.456;2023-04-25T13:46:14;10.80;99.90
18384;DHT22;9318;48.644;9.456;2023-04-25T13:48:41;10.60;99.90
18384;DHT22;9318;48.644;9.456;2023-04-25T13:51:13;10.60;99.90
18384;DHT22;9318;48.644;9.456;2023-04-25T13:53:40;10.80;99.90
18384;DHT22;9318;48.644;9.456;2023-04-25T13:56:07;11.10;99.90
18384;DHT22;9318;48.644;9.456;2023-04-25T13:58:33;11.10;99.90
18384;DHT22;9318;48.644;9.456;2023-04-25T14:01:01;11.10;99.90
18384;DHT22;9318;48.644;9.456;2023-04-25T14:03:30;11.00;99.90
18384;DHT22;9318;48.644;9.456;2023-04-25T14:05:56;10.90;99.90
18384;DHT22;9318;48.644;9.456;2023-04-25T14:08:23;10.70;99.90
18384;DHT22;9318;48.644;9.456;2023-04-25T14:10:50;10.50;99.90
18384;DHT22;9318;48.644;9.456;2023-04-25T14:13:17;10.40;99.90
18384;DHT22;9318;48.644;9.456;2023-04-25T14:15:44;10.30;99.90
18384;DHT22;9318;48.644;9.456;2023-04-25T14:18:10;10.30;99.90
18384;DHT22;9318;48.644;9.456;2023-04-25T14:20:38;10.30;99.90
18384;DHT22;9318;48.644;9.456;2023-04-25T14:23:05;10.30;99.90
18384;DHT22;9318;48.644;9.456;2023-04-25T14:25:32;10.40;99.90
18384;DHT22;9318;48.644;9.456;2023-04-25T14:27:59;10.50;99.90
18384;DHT22;9318;48.644;9.456;2023-04-25T14:30:26;10.70;99.90
18384;DHT22;9318;48.644;9.456;2023-04-25T14:32:53;10.90;99.90
18384;DHT22;9318;48.644;9.456;2023-04-25T14:35:20;11.10;99.90
18384;DHT22;9318;48.644;9.456;2023-04-25T14:37:48;11.20;99.90
18384;DHT22;9318;48.644;9.456;2023-04-25T14:40:15;11.20;99.90
18384;DHT22;9318;48.644;9.456;2023-04-25T14:42:42;11.30;99.90
18384;DHT22;9318;48.644;9.456;2023-04-25T14:45:09;11.40;99.90
18384;DHT22;9318;48.644;9.456;2023-04-25T14:47:36;11.40;99.90
18384;DHT22;9318;48.644;9.456;2023-04-25T14:50:04;11.40;99.90
18384;DHT22;9318;48.644;9.456;2023-04-25T14:52:31;11.40;99.90
18384;DHT22;9318;48.644;9.456;2023-04-25T14:54:59;11.50;99.90
18384;DHT22;9318;48.644;9.456;2023-04-25T14:57:30;11.50;99.90
18384;DHT22;9318;48.644;9.456;2023-04-25T14:59:57;11.50;99.90
18384;DHT22;9318;48.644;9.456;2023-04-25T15:02:23;11.50;99.90
18384;DHT22;9318;48.644;9.456;2023-04-25T15:04:51;11.50;99.90
18384;DHT22;9318;48.644;9.456;2023-04-25T15:07:17;11.50;99.90
18384;DHT22;9318;48.644;9.456;2023-04-25T15:09:45;11.50;99.90
18384;DHT22;9318;48.644;9.456;2023-04-25T15:12:13;11.50;99.90
18384;DHT22;9318;48.644;9.456;2023-04-25T15:14:40;11.50;99.90
18384;DHT22;9318;48.644;9.456;2023-04-25T15:17:06;11.60;99.90
18384;DHT22;9318;48.644;9.456;2023-04-25T15:19:33;11.60;99.90
18384;DHT22;9318;48.644;9.456;2023-04-25T15:22:00;11.50;99.90
18384;DHT22;9318;48.644;9.456;2023-04-25T15:24:29;11.50;99.90
18384;DHT22;9318;48.644;9.456;2023-04-25T15:26:56;11.50;99.90
18384;DHT22;9318;48.644;9.456;2023-04-25T15:29:25;11.50;99.90
18384;DHT22;9318;48.644;9.456;2023-04-25T15:31:52;11.60;99.90
18384;DHT22;9318;48.644;9.456;2023-04-25T15:34:19;11.70;99.90
18384;DHT22;9318;48.644;9.456;2023-04-25T15:36:46;11.70;99.90
18384;DHT22;9318;48.644;9.456;2023-04-25T15:39:12;11.70;99.90
18384;DHT22;9318;48.644;9.456;2023-04-25T15:41:39;11.70;99.90
18384;DHT22;9318;48.644;9.456;2023-04-25T15:44:06;11.70;99.90
18384;DHT22;9318;48.644;9.456;2023-04-25T15:46:37;11.60;99.90
18384;DHT22;9318;48.644;9.456;2023-04-25T15:49:03;11.70;99.90
18384;DHT22;9318;48.644;9.456;2023-04-25T15:51:30;11.70;99.90
18384;DHT22;9318;48.644;9.456;2023-04-25T15:53:58;11.70;99.90
18384;DHT22;9318;48.644;9.456;2023-04-25T15:56:26;11.70;99.90
18384;DHT22;9318;48.644;9.456;2023-04-25T15:58:53;11.60;99.90
18384;DHT22;9318;48.644;9.456;2023-04-25T16:01:20;11.60;99.90